createdAt,value
2023-01-18T00:03:54.199Z,4.75
2023-01-18T00:08:58.756Z,6.00
2023-01-18T00:14:04.287Z,7.00
2023-01-18T00:19:14.404Z,8.00
2023-01-18T00:24:18.943Z,6.75
2023-01-18T00:29:23.497Z,7.25
2023-01-18T00:34:28.869Z,9.00
2023-01-18T00:39:33.406Z,8.25
2023-01-18T00:44:37.698Z,6.50
2023-01-18T00:49:42.066Z,8.50
2023-01-18T00:54:46.506Z,6.75
2023-01-18T00:59:51.048Z,5.00
2023-01-18T01:05:13.703Z,9.25
2023-01-18T01:10:18.534Z,6.25
2023-01-18T01:15:41.135Z,8.25
2023-01-18T01:21:03.178Z,9.00
2023-01-18T01:26:12.205Z,10.00
2023-01-18T01:31:18.200Z,7.75
2023-01-18T01:36:27.149Z,6.50
2023-01-18T01:41:33.168Z,7.25
2023-01-18T01:46:48.601Z,6.75
2023-01-18T01:51:58.975Z,9.00
2023-01-18T01:57:07.784Z,10.50
2023-01-18T02:02:13.480Z,6.25
2023-01-18T02:07:17.981Z,7.25
2023-01-18T02:12:22.489Z,8.00
2023-01-18T02:17:39.827Z,7.00
2023-01-18T02:22:50.435Z,6.75
2023-01-18T02:28:07.378Z,7.75
2023-01-18T02:33:18.194Z,9.00
2023-01-18T02:38:26.309Z,9.50
2023-01-18T02:43:48.966Z,9.25
2023-01-18T02:48:53.986Z,9.75
2023-01-18T02:53:59.236Z,7.00
2023-01-18T02:59:19.065Z,8.00
2023-01-18T03:04:36.084Z,15.25
2023-01-18T03:09:41.526Z,14.75
2023-01-18T03:14:48.761Z,12.00
2023-01-18T03:20:09.792Z,15.50
2023-01-18T03:25:16.993Z,13.75
2023-01-18T03:30:39.715Z,10.25
2023-01-18T03:35:44.231Z,9.75
2023-01-18T03:40:49.019Z,11.00
2023-01-18T03:45:54.646Z,10.00
2023-01-18T03:51:08.793Z,14.25
2023-01-18T03:56:20.637Z,12.00
2023-01-18T04:01:25.548Z,10.25
2023-01-18T04:06:30.940Z,10.75
2023-01-18T04:11:35.575Z,9.50
2023-01-18T04:16:40.051Z,13.50
2023-01-18T04:21:44.085Z,14.00
2023-01-18T04:26:48.307Z,12.00
2023-01-18T04:31:53.345Z,12.75
2023-01-18T04:36:58.008Z,13.00
2023-01-18T04:42:03.208Z,10.75
2023-01-18T04:47:07.847Z,11.00
2023-01-18T04:52:12.862Z,10.50
2023-01-18T04:57:17.667Z,9.25
2023-01-18T05:02:22.771Z,12.50
2023-01-18T05:07:27.185Z,13.00
2023-01-18T05:12:32.158Z,10.25
2023-01-18T05:17:36.691Z,11.00
2023-01-18T05:22:41.509Z,7.25
2023-01-18T05:27:46.254Z,7.25
2023-01-18T05:32:51.306Z,10.25
2023-01-18T05:37:55.400Z,8.25
2023-01-18T05:42:59.964Z,7.50
2023-01-18T05:48:05.269Z,9.00
2023-01-18T05:53:09.854Z,6.75
2023-01-18T05:58:14.477Z,10.00
2023-01-18T06:03:19.059Z,6.00
2023-01-18T06:08:24.331Z,7.50
2023-01-18T06:13:30.055Z,7.50
2023-01-18T06:18:35.439Z,9.50
2023-01-18T06:23:40.084Z,7.00
2023-01-18T06:28:44.933Z,8.25
2023-01-18T06:33:50.215Z,6.00
2023-01-18T06:38:54.801Z,6.75
2023-01-18T06:43:58.943Z,11.00
2023-01-18T06:49:03.179Z,49.75
2023-01-18T06:54:08.342Z,38.50
2023-01-18T06:59:13.212Z,43.25
2023-01-18T07:04:18.089Z,162.25
2023-01-18T07:09:22.847Z,66.75
2023-01-18T07:14:27.091Z,66.00
2023-01-18T07:19:31.836Z,68.00
2023-01-18T07:24:36.874Z,64.25
2023-01-18T07:29:41.513Z,63.50
2023-01-18T07:34:46.346Z,58.00
2023-01-18T07:39:51.205Z,57.25
2023-01-18T07:44:55.838Z,56.25
2023-01-18T07:50:00.510Z,54.50
2023-01-18T07:55:06.771Z,56.25
2023-01-18T08:00:12.766Z,56.00
2023-01-18T08:05:19.595Z,52.00
2023-01-18T08:10:24.384Z,48.50
2023-01-18T08:15:28.662Z,50.50
2023-01-18T08:20:33.239Z,49.75
2023-01-18T08:25:37.862Z,48.25
2023-01-18T08:30:43.714Z,60.50
2023-01-18T08:35:49.569Z,55.00
2023-01-18T08:40:54.066Z,53.00
2023-01-18T08:45:59.653Z,53.25
2023-01-18T08:51:05.076Z,53.25
2023-01-18T08:56:11.011Z,53.00
2023-01-18T09:01:15.953Z,49.75
2023-01-18T09:06:20.694Z,52.50
2023-01-18T09:11:25.160Z,47.50
2023-01-18T09:16:29.369Z,48.50
2023-01-18T09:21:33.833Z,50.00
2023-01-18T09:26:38.210Z,51.50
2023-01-18T09:31:42.444Z,49.25
2023-01-18T09:36:46.956Z,48.75
2023-01-18T09:41:55.886Z,49.50
2023-01-18T09:47:35.719Z,51.75
2023-01-18T09:52:55.149Z,51.25
2023-01-18T09:58:07.815Z,50.75
2023-01-18T10:03:18.147Z,49.75
2023-01-18T10:08:27.151Z,50.00
2023-01-18T10:13:39.253Z,47.75
2023-01-18T10:18:52.666Z,50.50
2023-01-18T10:24:03.343Z,50.25
2023-01-18T10:29:17.714Z,49.25
2023-01-18T10:34:23.956Z,51.00
2023-01-18T10:39:32.820Z,47.50
2023-01-18T10:44:36.911Z,49.75
2023-01-18T10:49:42.773Z,46.75
2023-01-18T10:54:57.287Z,46.75
2023-01-18T11:00:01.727Z,49.50
2023-01-18T11:05:09.030Z,49.50
2023-01-18T11:10:27.652Z,48.00
2023-01-18T11:15:33.085Z,46.25
2023-01-18T11:20:50.149Z,45.00
2023-01-18T11:25:54.551Z,44.75
2023-01-18T11:31:00.921Z,45.50
2023-01-18T11:36:07.028Z,44.25
2023-01-18T11:41:19.117Z,49.75
2023-01-18T11:46:33.012Z,43.00
2023-01-18T11:51:47.223Z,41.25
2023-01-18T11:56:53.471Z,40.25
2023-01-18T12:02:07.032Z,39.75
2023-01-18T12:07:46.958Z,43.75
2023-01-18T12:12:54.092Z,41.75
2023-01-18T12:18:33.528Z,38.50
2023-01-18T12:23:40.296Z,38.25
2023-01-18T12:28:45.165Z,38.75
2023-01-18T12:33:50.202Z,41.00
2023-01-18T12:38:56.890Z,34.25
2023-01-18T12:44:07.525Z,34.50
2023-01-18T12:49:20.145Z,34.75
2023-01-18T12:54:33.562Z,34.50
2023-01-18T12:59:45.136Z,33.25
2023-01-18T13:04:56.318Z,34.00
2023-01-18T13:10:02.282Z,31.50
2023-01-18T13:15:15.640Z,34.75
2023-01-18T13:20:24.691Z,34.00
2023-01-18T13:25:30.308Z,38.00
2023-01-18T13:30:46.641Z,34.25
2023-01-18T13:35:53.928Z,29.75
2023-01-18T13:41:14.601Z,36.75
2023-01-18T13:46:27.729Z,36.50
2023-01-18T13:51:40.016Z,30.25
2023-01-18T13:57:16.598Z,31.25
2023-01-18T14:02:25.220Z,34.00
2023-01-18T14:07:30.742Z,29.50
2023-01-18T14:13:01.895Z,31.75
2023-01-18T14:18:14.402Z,34.00
2023-01-18T14:23:43.108Z,29.00
2023-01-18T14:29:00.687Z,25.75
2023-01-18T14:34:23.749Z,25.00
2023-01-18T14:39:31.387Z,25.50
2023-01-18T14:44:56.926Z,24.50
2023-01-18T14:50:08.668Z,23.50
2023-01-18T14:55:33.826Z,26.50
2023-01-18T15:00:58.511Z,27.50
2023-01-18T15:06:08.063Z,25.00
2023-01-18T15:11:13.407Z,27.50
2023-01-18T15:16:21.568Z,27.50
2023-01-18T15:21:31.607Z,31.00
2023-01-18T15:26:46.153Z,22.00
2023-01-18T15:31:58.616Z,27.00
2023-01-18T15:37:06.064Z,27.75
2023-01-18T15:42:12.720Z,22.75
2023-01-18T15:47:39.656Z,21.75
2023-01-18T15:52:45.859Z,23.50
2023-01-18T15:57:57.683Z,23.75
2023-01-18T16:03:04.460Z,22.00
2023-01-18T16:08:21.374Z,25.50
2023-01-18T16:13:29.065Z,26.00
2023-01-18T16:18:34.000Z,21.75
2023-01-18T16:23:39.892Z,21.00
2023-01-18T16:28:45.588Z,20.50
2023-01-18T16:33:50.354Z,23.50
2023-01-18T16:38:55.188Z,25.75
2023-01-18T16:44:00.196Z,19.75
2023-01-18T16:49:04.947Z,21.25
2023-01-18T16:54:10.181Z,24.00
2023-01-18T16:59:19.489Z,24.75
2023-01-18T17:04:24.357Z,26.25
2023-01-18T17:09:32.499Z,22.75
2023-01-18T17:14:39.226Z,27.00
2023-01-18T17:19:44.409Z,23.50
2023-01-18T17:24:50.734Z,21.75
2023-01-18T17:29:55.322Z,20.00
2023-01-18T17:34:59.886Z,17.50
2023-01-18T17:40:22.702Z,19.50
2023-01-18T17:45:28.360Z,20.50
2023-01-18T17:50:33.037Z,20.50
2023-01-18T17:55:37.614Z,16.50
2023-01-18T18:00:42.125Z,16.75
2023-01-18T18:05:46.701Z,17.75
2023-01-18T18:10:51.239Z,14.25
2023-01-18T18:15:55.767Z,19.00
2023-01-18T18:21:04.342Z,16.50
2023-01-18T18:26:09.972Z,17.25
2023-01-18T18:31:17.110Z,17.75
2023-01-18T18:36:22.510Z,17.25
2023-01-18T18:41:26.649Z,17.50
2023-01-18T18:46:31.054Z,19.50
2023-01-18T18:51:38.299Z,19.75
2023-01-18T18:56:42.934Z,15.25
2023-01-18T19:01:47.438Z,15.50
2023-01-18T19:06:52.031Z,15.75
2023-01-18T19:11:56.212Z,15.75
2023-01-18T19:17:01.360Z,15.00
2023-01-18T19:22:06.183Z,17.50
2023-01-18T19:27:11.411Z,13.50
2023-01-18T19:32:16.441Z,17.50
2023-01-18T19:37:21.007Z,16.00
2023-01-18T19:42:25.077Z,15.50
2023-01-18T19:47:29.832Z,14.50
2023-01-18T19:52:34.419Z,16.00
2023-01-18T19:57:38.921Z,14.25
2023-01-18T20:02:43.868Z,14.75
2023-01-18T20:07:48.590Z,12.50
2023-01-18T20:12:53.273Z,15.00
2023-01-18T20:17:57.758Z,13.50
2023-01-18T20:23:05.208Z,15.25
2023-01-18T20:28:09.654Z,14.00
2023-01-18T20:33:13.715Z,13.25
2023-01-18T20:38:17.875Z,14.25
2023-01-18T20:43:22.432Z,11.25
2023-01-18T20:48:26.511Z,15.00
2023-01-18T20:53:31.838Z,16.50
2023-01-18T20:58:36.085Z,11.75
2023-01-18T21:03:40.172Z,15.50
2023-01-18T21:08:44.194Z,10.75
2023-01-18T21:13:48.275Z,13.50
2023-01-18T21:18:57.454Z,12.50
2023-01-18T21:24:01.649Z,11.75
2023-01-18T21:29:06.332Z,11.00
2023-01-18T21:34:10.521Z,13.00
2023-01-18T21:39:19.673Z,12.00
2023-01-18T21:44:42.078Z,13.25
2023-01-18T21:50:16.932Z,12.25
2023-01-18T21:55:23.388Z,12.00
2023-01-18T22:00:27.432Z,10.75
2023-01-18T22:05:31.473Z,12.00
2023-01-18T22:10:35.520Z,9.00
2023-01-18T22:15:40.074Z,8.00
2023-01-18T22:20:44.209Z,11.25
2023-01-18T22:25:48.448Z,11.75
2023-01-18T22:30:52.639Z,13.25
2023-01-18T22:36:00.112Z,13.25
2023-01-18T22:41:05.954Z,9.00
2023-01-18T22:46:10.514Z,7.25
2023-01-18T22:51:15.988Z,6.25
2023-01-18T22:56:24.276Z,9.75
2023-01-18T23:01:30.555Z,14.75
2023-01-18T23:06:46.957Z,20.25
2023-01-18T23:11:52.783Z,22.00
2023-01-18T23:17:15.215Z,21.50
2023-01-18T23:22:19.253Z,22.00
2023-01-18T23:27:23.424Z,29.75
2023-01-18T23:32:31.625Z,24.25
2023-01-18T23:37:35.777Z,24.75
2023-01-18T23:42:58.419Z,18.25
2023-01-18T23:48:40.436Z,29.50
2023-01-18T23:54:02.749Z,23.25
2023-01-18T23:59:07.367Z,22.25
